sensor_id;sensor_type;location;lat;lon;timestamp;pressure;altitude;pressure_sealevel;temperature;humidity
50282;BME280;36176;51.506;10.272;2023-02-26T00:01:23;99230.50;;;-1.05;80.30
50282;BME280;36176;51.506;10.272;2023-02-26T00:03:52;99233.94;;;-1.06;79.96
50282;BME280;36176;51.506;10.272;2023-02-26T00:06:19;99225.31;;;-1.11;80.30
50282;BME280;36176;51.506;10.272;2023-02-26T00:08:46;99230.50;;;-1.10;80.72
50282;BME280;36176;51.506;10.272;2023-02-26T00:11:13;99244.34;;;-1.03;80.32
50282;BME280;36176;51.506;10.272;2023-02-26T00:13:42;99242.59;;;-1.01;80.12
50282;BME280;36176;51.506;10.272;2023-02-26T00:16:29;99246.94;;;-1.01;80.81
50282;BME280;36176;51.506;10.272;2023-02-26T00:18:58;99246.97;;;-1.03;80.30
50282;BME280;36176;51.506;10.272;2023-02-26T00:21:27;99245.19;;;-0.99;80.35
50282;BME280;36176;51.506;10.272;2023-02-26T00:23:54;99245.19;;;-1.01;80.08
50282;BME280;36176;51.506;10.272;2023-02-26T00:26:22;99254.72;;;-0.98;80.81
50282;BME280;36176;51.506;10.272;2023-02-26T00:28:53;99262.53;;;-0.95;80.53
50282;BME280;36176;51.506;10.272;2023-02-26T00:31:21;99259.06;;;-0.96;80.74
50282;BME280;36176;51.506;10.272;2023-02-26T00:33:53;99253.84;;;-0.97;80.07
50282;BME280;36176;51.506;10.272;2023-02-26T00:36:40;99256.44;;;-0.99;80.46
50282;BME280;36176;51.506;10.272;2023-02-26T00:41:48;99266.03;;;-1.09;80.17
50282;BME280;36176;51.506;10.272;2023-02-26T00:44:15;99272.97;;;-1.20;81.02
50282;BME280;36176;51.506;10.272;2023-02-26T00:46:54;99273.03;;;-1.34;81.22
50282;BME280;36176;51.506;10.272;2023-02-26T00:53:08;99269.63;;;-1.53;83.05
50282;BME280;36176;51.506;10.272;2023-02-26T00:55:26;99272.22;;;-1.62;82.12
50282;BME280;36176;51.506;10.272;2023-02-26T00:57:55;99277.41;;;-1.66;82.49
50282;BME280;36176;51.506;10.272;2023-02-26T01:00:22;99281.75;;;-1.70;83.12
50282;BME280;36176;51.506;10.272;2023-02-26T01:02:49;99277.41;;;-1.73;83.02
50282;BME280;36176;51.506;10.272;2023-02-26T01:05:17;99283.47;;;-1.71;83.32
50282;BME280;36176;51.506;10.272;2023-02-26T01:10:23;99287.81;;;-1.69;83.88
50282;BME280;36176;51.506;10.272;2023-02-26T01:12:50;99287.81;;;-1.66;83.35
50282;BME280;36176;51.506;10.272;2023-02-26T01:15:18;99286.09;;;-1.64;84.11
50282;BME280;36176;51.506;10.272;2023-02-26T01:17:50;99292.13;;;-1.64;83.89
50282;BME280;36176;51.506;10.272;2023-02-26T01:20:23;99293.88;;;-1.67;83.49
50282;BME280;36176;51.506;10.272;2023-02-26T01:22:57;99292.16;;;-1.67;84.06
50282;BME280;36176;51.506;10.272;2023-02-26T01:25:31;99294.75;;;-1.72;83.20
50282;BME280;36176;51.506;10.272;2023-02-26T01:28:02;99290.44;;;-1.79;83.96
50282;BME280;36176;51.506;10.272;2023-02-26T01:30:30;99309.47;;;-1.78;83.96
50282;BME280;36176;51.506;10.272;2023-02-26T01:35:41;99300.78;;;-1.68;83.37
50282;BME280;36176;51.506;10.272;2023-02-26T01:38:17;99300.78;;;-1.63;84.10
50282;BME280;36176;51.506;10.272;2023-02-26T01:43:33;99310.34;;;-1.62;84.15
50282;BME280;36176;51.506;10.272;2023-02-26T01:46:09;99311.19;;;-1.59;83.75
50282;BME280;36176;51.506;10.272;2023-02-26T01:48:52;99319.84;;;-1.51;84.23
50282;BME280;36176;51.506;10.272;2023-02-26T01:51:54;99319.84;;;-1.44;83.58
50282;BME280;36176;51.506;10.272;2023-02-26T01:54:29;99318.97;;;-1.40;83.64
50282;BME280;36176;51.506;10.272;2023-02-26T01:57:09;99329.34;;;-1.34;83.46
50282;BME280;36176;51.506;10.272;2023-02-26T01:59:42;99327.63;;;-1.31;84.41
50282;BME280;36176;51.506;10.272;2023-02-26T02:02:12;99322.41;;;-1.26;83.91
50282;BME280;36176;51.506;10.272;2023-02-26T02:04:41;99327.59;;;-1.23;84.41
50282;BME280;36176;51.506;10.272;2023-02-26T02:07:08;99323.28;;;-1.25;84.54
50282;BME280;36176;51.506;10.272;2023-02-26T02:09:35;99331.06;;;-1.25;84.73
50282;BME280;36176;51.506;10.272;2023-02-26T02:15:10;99332.81;;;-1.31;84.88
50282;BME280;36176;51.506;10.272;2023-02-26T02:18:00;99338.03;;;-1.34;85.25
50282;BME280;36176;51.506;10.272;2023-02-26T02:20:56;99347.53;;;-1.34;85.33
50282;BME280;36176;51.506;10.272;2023-02-26T02:23:36;99338.88;;;-1.33;84.86
50282;BME280;36176;51.506;10.272;2023-02-26T02:26:29;99343.19;;;-1.32;84.73
50282;BME280;36176;51.506;10.272;2023-02-26T02:29:30;99338.88;;;-1.33;84.81
50282;BME280;36176;51.506;10.272;2023-02-26T02:32:05;99348.41;;;-1.32;85.53
50282;BME280;36176;51.506;10.272;2023-02-26T02:34:40;99342.34;;;-1.34;85.43
50282;BME280;36176;51.506;10.272;2023-02-26T02:37:33;99354.47;;;-1.39;85.44
50282;BME280;36176;51.506;10.272;2023-02-26T02:40:13;99362.28;;;-1.44;85.17
50282;BME280;36176;51.506;10.272;2023-02-26T02:42:57;99357.09;;;-1.53;85.67
50282;BME280;36176;51.506;10.272;2023-02-26T02:45:42;99355.38;;;-1.69;86.84
50282;BME280;36176;51.506;10.272;2023-02-26T02:48:25;99351.88;;;-1.87;86.81
50282;BME280;36176;51.506;10.272;2023-02-26T02:51:01;99360.53;;;-2.00;87.65
50282;BME280;36176;51.506;10.272;2023-02-26T02:53:36;99370.88;;;-2.11;87.84
50282;BME280;36176;51.506;10.272;2023-02-26T02:56:17;99361.34;;;-2.20;88.53
50282;BME280;36176;51.506;10.272;2023-02-26T02:58:50;99356.16;;;-2.27;88.62
50282;BME280;36176;51.506;10.272;2023-02-26T03:01:20;99369.13;;;-2.27;89.69
50282;BME280;36176;51.506;10.272;2023-02-26T03:06:20;99367.38;;;-2.27;89.22
50282;BME280;36176;51.506;10.272;2023-02-26T03:08:48;99377.78;;;-2.27;89.15
50282;BME280;36176;51.506;10.272;2023-02-26T03:11:16;99367.38;;;-2.31;89.49
50282;BME280;36176;51.506;10.272;2023-02-26T03:13:44;99379.47;;;-2.38;89.93
50282;BME280;36176;51.506;10.272;2023-02-26T03:19:14;99382.06;;;-2.38;89.75
50282;BME280;36176;51.506;10.272;2023-02-26T03:22:24;99393.31;;;-2.34;90.12
50282;BME280;36176;51.506;10.272;2023-02-26T03:24:48;99391.59;;;-2.29;89.33
50282;BME280;36176;51.506;10.272;2023-02-26T03:27:45;99392.47;;;-2.27;89.05
50282;BME280;36176;51.506;10.272;2023-02-26T03:30:25;99410.66;;;-2.24;88.94
50282;BME280;36176;51.506;10.272;2023-02-26T03:33:25;99425.34;;;-2.23;89.25
50282;BME280;36176;51.506;10.272;2023-02-26T03:36:09;99429.69;;;-2.19;89.17
50282;BME280;36176;51.506;10.272;2023-02-26T03:38:53;99432.34;;;-2.10;89.11
50282;BME280;36176;51.506;10.272;2023-02-26T03:41:33;99438.41;;;-2.02;88.89
50282;BME280;36176;51.506;10.272;2023-02-26T03:44:06;99442.75;;;-1.98;89.38
50282;BME280;36176;51.506;10.272;2023-02-26T03:46:40;99454.88;;;-1.90;88.61
50282;BME280;36176;51.506;10.272;2023-02-26T03:49:15;99454.03;;;-1.85;88.57
50282;BME280;36176;51.506;10.272;2023-02-26T03:51:45;99457.50;;;-1.78;88.29
50282;BME280;36176;51.506;10.272;2023-02-26T03:54:18;99461.88;;;-1.74;88.16
50282;BME280;36176;51.506;10.272;2023-02-26T03:56:47;99463.59;;;-1.72;88.25
50282;BME280;36176;51.506;10.272;2023-02-26T03:59:16;99469.66;;;-1.69;88.58
50282;BME280;36176;51.506;10.272;2023-02-26T04:04:22;99479.19;;;-1.65;87.96
50282;BME280;36176;51.506;10.272;2023-02-26T04:06:51;99480.94;;;-1.64;87.78
50282;BME280;36176;51.506;10.272;2023-02-26T04:09:20;99479.19;;;-1.67;88.11
50282;BME280;36176;51.506;10.272;2023-02-26T04:11:48;99483.53;;;-1.67;87.75
50282;BME280;36176;51.506;10.272;2023-02-26T04:14:16;99490.44;;;-1.66;87.51
50282;BME280;36176;51.506;10.272;2023-02-26T04:16:43;99483.53;;;-1.67;88.33
50282;BME280;36176;51.506;10.272;2023-02-26T04:19:11;99490.44;;;-1.66;88.09
50282;BME280;36176;51.506;10.272;2023-02-26T04:21:38;99493.03;;;-1.68;88.27
50282;BME280;36176;51.506;10.272;2023-02-26T04:24:05;99493.06;;;-1.66;88.02
50282;BME280;36176;51.506;10.272;2023-02-26T04:26:32;99493.03;;;-1.68;87.68
50282;BME280;36176;51.506;10.272;2023-02-26T04:28:59;99497.34;;;-1.70;87.48
50282;BME280;36176;51.506;10.272;2023-02-26T04:31:26;99499.94;;;-1.73;88.29
50282;BME280;36176;51.506;10.272;2023-02-26T04:33:53;99495.63;;;-1.74;87.84
50282;BME280;36176;51.506;10.272;2023-02-26T04:36:20;99504.28;;;-1.77;87.90
50282;BME280;36176;51.506;10.272;2023-02-26T04:38:48;99506.88;;;-1.77;88.22
50282;BME280;36176;51.506;10.272;2023-02-26T04:41:15;99506.88;;;-1.78;88.50
50282;BME280;36176;51.506;10.272;2023-02-26T04:43:42;99510.31;;;-1.78;88.63
50282;BME280;36176;51.506;10.272;2023-02-26T04:46:09;99516.41;;;-1.76;89.11
50282;BME280;36176;51.506;10.272;2023-02-26T04:48:37;99518.16;;;-1.72;88.69
50282;BME280;36176;51.506;10.272;2023-02-26T04:51:04;99521.63;;;-1.69;88.77
50282;BME280;36176;51.506;10.272;2023-02-26T04:53:31;99523.34;;;-1.65;88.32
50282;BME280;36176;51.506;10.272;2023-02-26T04:55:58;99520.75;;;-1.61;88.04
50282;BME280;36176;51.506;10.272;2023-02-26T04:58:25;99523.38;;;-1.62;87.71
50282;BME280;36176;51.506;10.272;2023-02-26T05:00:52;99519.91;;;-1.64;87.99
50282;BME280;36176;51.506;10.272;2023-02-26T05:03:20;99533.75;;;-1.65;87.44
50282;BME280;36176;51.506;10.272;2023-02-26T05:05:47;99536.31;;;-1.70;87.60
50282;BME280;36176;51.506;10.272;2023-02-26T05:08:14;99543.25;;;-1.74;87.28
50282;BME280;36176;51.506;10.272;2023-02-26T05:10:42;99546.72;;;-1.79;87.76
50282;BME280;36176;51.506;10.272;2023-02-26T05:13:09;99548.38;;;-1.90;87.61
50282;BME280;36176;51.506;10.272;2023-02-26T05:15:35;99558.75;;;-1.98;87.88
50282;BME280;36176;51.506;10.272;2023-02-26T05:18:02;99553.50;;;-2.07;88.81
50282;BME280;36176;51.506;10.272;2023-02-26T05:20:29;99552.59;;;-2.17;88.83
50282;BME280;36176;51.506;10.272;2023-02-26T05:22:56;99555.97;;;-2.29;89.63
50282;BME280;36176;51.506;10.272;2023-02-26T05:25:23;99553.28;;;-2.40;89.61
50282;BME280;36176;51.506;10.272;2023-02-26T05:27:51;99560.16;;;-2.51;90.07
50282;BME280;36176;51.506;10.272;2023-02-26T05:30:18;99562.66;;;-2.62;91.08
50282;BME280;36176;51.506;10.272;2023-02-26T05:32:45;99566.06;;;-2.69;91.17
50282;BME280;36176;51.506;10.272;2023-02-26T05:35:12;99572.13;;;-2.73;90.96
50282;BME280;36176;51.506;10.272;2023-02-26T05:37:40;99572.06;;;-2.76;91.01
50282;BME280;36176;51.506;10.272;2023-02-26T05:40:08;99581.53;;;-2.81;91.49
50282;BME280;36176;51.506;10.272;2023-02-26T05:42:38;99581.53;;;-2.84;91.82
50282;BME280;36176;51.506;10.272;2023-02-26T05:45:06;99579.81;;;-2.81;91.53
50282;BME280;36176;51.506;10.272;2023-02-26T05:47:33;99582.41;;;-2.82;92.10
50282;BME280;36176;51.506;10.272;2023-02-26T05:50:01;99592.72;;;-2.85;91.74
50282;BME280;36176;51.506;10.272;2023-02-26T05:52:28;99593.53;;;-2.92;91.50
50282;BME280;36176;51.506;10.272;2023-02-26T05:54:55;99605.59;;;-2.97;91.50
50282;BME280;36176;51.506;10.272;2023-02-26T05:57:23;99605.53;;;-3.04;91.73
50282;BME280;36176;51.506;10.272;2023-02-26T05:59:50;99602.09;;;-3.03;91.61
50282;BME280;36176;51.506;10.272;2023-02-26T06:02:17;99614.25;;;-2.95;91.44
50282;BME280;36176;51.506;10.272;2023-02-26T06:04:44;99614.31;;;-2.89;91.36
50282;BME280;36176;51.506;10.272;2023-02-26T06:07:11;99616.97;;;-2.83;91.63
50282;BME280;36176;51.506;10.272;2023-02-26T06:09:38;99628.25;;;-2.76;91.29
50282;BME280;36176;51.506;10.272;2023-02-26T06:12:06;99635.25;;;-2.69;91.26
50282;BME280;36176;51.506;10.272;2023-02-26T06:14:34;99646.59;;;-2.58;90.36
50282;BME280;36176;51.506;10.272;2023-02-26T06:17:03;99650.13;;;-2.47;89.64
50282;BME280;36176;51.506;10.272;2023-02-26T06:19:30;99653.66;;;-2.37;89.37
50282;BME280;36176;51.506;10.272;2023-02-26T06:21:57;99654.63;;;-2.27;89.24
50282;BME280;36176;51.506;10.272;2023-02-26T06:24:24;99652.06;;;-2.18;88.88
50282;BME280;36176;51.506;10.272;2023-02-26T06:26:52;99666.00;;;-2.07;88.57
50282;BME280;36176;51.506;10.272;2023-02-26T06:29:19;99664.38;;;-1.93;87.83
50282;BME280;36176;51.506;10.272;2023-02-26T06:31:46;99667.91;;;-1.84;87.78
50282;BME280;36176;51.506;10.272;2023-02-26T06:34:14;99677.44;;;-1.82;87.28
50282;BME280;36176;51.506;10.272;2023-02-26T06:36:41;99682.63;;;-1.82;87.25
50282;BME280;36176;51.506;10.272;2023-02-26T06:39:08;99689.56;;;-1.78;87.32
50282;BME280;36176;51.506;10.272;2023-02-26T06:41:35;99695.69;;;-1.68;86.21
50282;BME280;36176;51.506;10.272;2023-02-26T06:44:02;99702.75;;;-1.42;85.55
50282;BME280;36176;51.506;10.272;2023-02-26T06:46:29;99703.81;;;-0.87;85.75
50282;BME280;36176;51.506;10.272;2023-02-26T06:48:56;99703.03;;;-0.59;82.56
50282;BME280;36176;51.506;10.272;2023-02-26T06:51:23;99713.41;;;-0.62;80.20
50282;BME280;36176;51.506;10.272;2023-02-26T06:53:50;99710.78;;;-0.75;80.97
50282;BME280;36176;51.506;10.272;2023-02-26T06:56:17;99718.63;;;-0.72;82.17
50282;BME280;36176;51.506;10.272;2023-02-26T06:58:44;99728.16;;;-0.74;80.80
50282;BME280;36176;51.506;10.272;2023-02-26T07:01:11;99726.41;;;-0.70;81.21
50282;BME280;36176;51.506;10.272;2023-02-26T07:03:38;99736.94;;;-0.09;81.03
50282;BME280;36176;51.506;10.272;2023-02-26T07:06:06;99734.31;;;0.20;79.42
50282;BME280;36176;51.506;10.272;2023-02-26T07:08:53;99740.16;;;1.07;77.67
50282;BME280;36176;51.506;10.272;2023-02-26T07:11:20;99751.25;;;1.47;75.47
50282;BME280;36176;51.506;10.272;2023-02-26T07:13:47;99756.28;;;1.77;74.90
50282;BME280;36176;51.506;10.272;2023-02-26T07:16:14;99762.38;;;1.77;73.55
50282;BME280;36176;51.506;10.272;2023-02-26T07:18:41;99759.94;;;1.51;73.32
50282;BME280;36176;51.506;10.272;2023-02-26T07:21:08;99755.84;;;0.89;74.83
50282;BME280;36176;51.506;10.272;2023-02-26T07:23:35;99772.50;;;0.37;76.43
50282;BME280;36176;51.506;10.272;2023-02-26T07:26:02;99768.19;;;0.10;78.02
50282;BME280;36176;51.506;10.272;2023-02-26T07:28:29;99770.78;;;-0.04;78.83
50282;BME280;36176;51.506;10.272;2023-02-26T07:30:56;99785.53;;;-0.08;79.47
50282;BME280;36176;51.506;10.272;2023-02-26T07:33:23;99785.53;;;0.02;79.95
50282;BME280;36176;51.506;10.272;2023-02-26T07:35:52;99787.28;;;0.27;80.26
50282;BME280;36176;51.506;10.272;2023-02-26T07:38:19;99785.50;;;0.48;79.83
50282;BME280;36176;51.506;10.272;2023-02-26T07:40:46;99792.41;;;0.82;79.64
50282;BME280;36176;51.506;10.272;2023-02-26T07:43:14;99795.88;;;0.94;78.25
50282;BME280;36176;51.506;10.272;2023-02-26T07:45:40;99793.25;;;0.86;77.98
50282;BME280;36176;51.506;10.272;2023-02-26T07:48:07;99796.78;;;0.77;78.26
50282;BME280;36176;51.506;10.272;2023-02-26T07:50:34;99801.94;;;0.97;78.88
50282;BME280;36176;51.506;10.272;2023-02-26T07:53:01;99801.91;;;1.11;77.97
50282;BME280;36176;51.506;10.272;2023-02-26T07:55:28;99797.41;;;1.44;78.11
50282;BME280;36176;51.506;10.272;2023-02-26T07:57:55;99803.47;;;1.52;77.14
50282;BME280;36176;51.506;10.272;2023-02-26T08:00:22;99807.84;;;1.47;77.02
50282;BME280;36176;51.506;10.272;2023-02-26T08:02:49;99811.38;;;1.37;76.70
50282;BME280;36176;51.506;10.272;2023-02-26T08:05:16;99816.59;;;1.37;77.12
50282;BME280;36176;51.506;10.272;2023-02-26T08:07:44;99830.47;;;1.45;77.97
50282;BME280;36176;51.506;10.272;2023-02-26T08:10:11;99826.97;;;1.46;77.92
50282;BME280;36176;51.506;10.272;2023-02-26T08:12:38;99822.63;;;1.49;77.32
50282;BME280;36176;51.506;10.272;2023-02-26T08:15:05;99823.44;;;1.64;76.61
50282;BME280;36176;51.506;10.272;2023-02-26T08:17:32;99829.03;;;3.26;75.90
50282;BME280;36176;51.506;10.272;2023-02-26T08:19:59;99829.34;;;4.81;72.28
50282;BME280;36176;51.506;10.272;2023-02-26T08:22:26;99829.09;;;5.81;66.20
50282;BME280;36176;51.506;10.272;2023-02-26T08:24:53;99845.50;;;7.34;61.71
50282;BME280;36176;51.506;10.272;2023-02-26T08:27:21;99838.44;;;8.51;56.61
50282;BME280;36176;51.506;10.272;2023-02-26T08:29:48;99845.94;;;9.41;51.08
50282;BME280;36176;51.506;10.272;2023-02-26T08:32:17;99839.91;;;9.37;46.71
50282;BME280;36176;51.506;10.272;2023-02-26T08:34:45;99844.34;;;8.03;48.28
50282;BME280;36176;51.506;10.272;2023-02-26T08:37:13;99840.38;;;6.96;50.77
50282;BME280;36176;51.506;10.272;2023-02-26T08:39:40;99844.50;;;6.36;51.16
50282;BME280;36176;51.506;10.272;2023-02-26T08:42:08;99857.63;;;6.39;51.92
50282;BME280;36176;51.506;10.272;2023-02-26T08:44:35;99854.56;;;5.79;50.01
50282;BME280;36176;51.506;10.272;2023-02-26T08:47:02;99864.94;;;5.44;52.26
50282;BME280;36176;51.506;10.272;2023-02-26T08:49:29;99855.34;;;4.95;52.65
50282;BME280;36176;51.506;10.272;2023-02-26T08:51:56;99858.47;;;4.67;53.78
50282;BME280;36176;51.506;10.272;2023-02-26T08:54:24;99868.41;;;4.48;55.02
50282;BME280;36176;51.506;10.272;2023-02-26T08:56:51;99873.38;;;4.08;51.76
50282;BME280;36176;51.506;10.272;2023-02-26T08:59:19;99869.66;;;4.23;54.88
50282;BME280;36176;51.506;10.272;2023-02-26T09:01:46;99880.03;;;4.86;51.16
50282;BME280;36176;51.506;10.272;2023-02-26T09:04:13;99888.16;;;5.21;49.85
50282;BME280;36176;51.506;10.272;2023-02-26T09:06:40;99888.59;;;6.27;47.95
50282;BME280;36176;51.506;10.272;2023-02-26T09:09:07;99899.56;;;7.49;45.96
50282;BME280;36176;51.506;10.272;2023-02-26T09:11:34;99902.22;;;8.38;43.47
50282;BME280;36176;51.506;10.272;2023-02-26T09:14:03;99903.88;;;8.97;41.93
50282;BME280;36176;51.506;10.272;2023-02-26T09:16:31;99913.16;;;9.84;41.45
50282;BME280;36176;51.506;10.272;2023-02-26T09:19:01;99914.91;;;9.59;39.53
50282;BME280;36176;51.506;10.272;2023-02-26T09:21:29;99918.41;;;8.83;40.69
50282;BME280;36176;51.506;10.272;2023-02-26T09:23:56;99923.91;;;9.55;38.57
50282;BME280;36176;51.506;10.272;2023-02-26T09:26:23;99928.13;;;10.08;40.56
50282;BME280;36176;51.506;10.272;2023-02-26T09:28:51;99930.06;;;11.15;39.47
50282;BME280;36176;51.506;10.272;2023-02-26T09:31:18;99937.25;;;12.13;39.65
50282;BME280;36176;51.506;10.272;2023-02-26T09:33:45;99938.78;;;11.39;36.30
50282;BME280;36176;51.506;10.272;2023-02-26T09:36:12;99938.97;;;11.34;36.99
50282;BME280;36176;51.506;10.272;2023-02-26T09:38:39;99943.28;;;12.17;38.19
50282;BME280;36176;51.506;10.272;2023-02-26T09:41:21;99952.34;;;12.87;35.97
50282;BME280;36176;51.506;10.272;2023-02-26T09:44:15;99951.75;;;12.63;34.02
50282;BME280;36176;51.506;10.272;2023-02-26T09:47:22;99956.88;;;12.85;34.11
50282;BME280;36176;51.506;10.272;2023-02-26T09:52:51;99959.44;;;13.23;32.02
50282;BME280;36176;51.506;10.272;2023-02-26T09:55:41;99960.78;;;13.84;33.94
50282;BME280;36176;51.506;10.272;2023-02-26T09:58:17;99961.19;;;13.76;33.24
50282;BME280;36176;51.506;10.272;2023-02-26T10:01:00;99960.31;;;13.76;32.49
50282;BME280;36176;51.506;10.272;2023-02-26T10:03:32;99960.66;;;13.52;31.57
50282;BME280;36176;51.506;10.272;2023-02-26T10:06:16;99970.56;;;11.81;33.10
50282;BME280;36176;51.506;10.272;2023-02-26T10:09:04;99975.59;;;10.60;35.87
50282;BME280;36176;51.506;10.272;2023-02-26T10:11:43;99982.06;;;10.29;34.67
50282;BME280;36176;51.506;10.272;2023-02-26T10:16:47;99987.13;;;11.66;34.97
50282;BME280;36176;51.506;10.272;2023-02-26T10:19:18;99991.13;;;11.97;34.88
50282;BME280;36176;51.506;10.272;2023-02-26T10:21:51;99994.91;;;12.68;35.32
50282;BME280;36176;51.506;10.272;2023-02-26T10:24:39;100008.00;;;12.35;33.91
50282;BME280;36176;51.506;10.272;2023-02-26T10:27:14;99995.91;;;10.83;34.15
50282;BME280;36176;51.506;10.272;2023-02-26T10:29:57;100006.84;;;11.18;36.78
50282;BME280;36176;51.506;10.272;2023-02-26T10:32:37;99997.50;;;11.72;37.57
50282;BME280;36176;51.506;10.272;2023-02-26T10:35:12;100003.38;;;12.20;35.80
50282;BME280;36176;51.506;10.272;2023-02-26T10:37:56;100007.56;;;12.25;33.90
50282;BME280;36176;51.506;10.272;2023-02-26T10:40:50;100002.19;;;10.35;35.18
50282;BME280;36176;51.506;10.272;2023-02-26T10:43:35;100014.13;;;8.65;38.26
50282;BME280;36176;51.506;10.272;2023-02-26T10:51:14;100004.72;;;7.94;42.53
50282;BME280;36176;51.506;10.272;2023-02-26T10:53:46;100011.94;;;8.49;41.51
50282;BME280;36176;51.506;10.272;2023-02-26T10:56:19;100012.50;;;8.89;40.31
50282;BME280;36176;51.506;10.272;2023-02-26T10:58:50;100008.34;;;9.35;41.19
50282;BME280;36176;51.506;10.272;2023-02-26T11:01:19;100011.56;;;9.95;40.67
50282;BME280;36176;51.506;10.272;2023-02-26T11:03:53;100012.97;;;9.80;39.11
50282;BME280;36176;51.506;10.272;2023-02-26T11:06:30;100022.84;;;9.23;40.99
50282;BME280;36176;51.506;10.272;2023-02-26T11:09:00;100018.22;;;8.75;39.49
50282;BME280;36176;51.506;10.272;2023-02-26T11:14:02;100018.75;;;7.96;41.46
50282;BME280;36176;51.506;10.272;2023-02-26T11:16:29;100023.97;;;7.64;42.03
50282;BME280;36176;51.506;10.272;2023-02-26T11:18:59;100027.81;;;7.17;43.58
50282;BME280;36176;51.506;10.272;2023-02-26T11:21:28;100032.38;;;7.10;43.88
50282;BME280;36176;51.506;10.272;2023-02-26T11:26:35;100023.31;;;6.02;44.17
50282;BME280;36176;51.506;10.272;2023-02-26T11:29:03;100028.28;;;5.69;44.59
50282;BME280;36176;51.506;10.272;2023-02-26T11:31:31;100032.19;;;6.40;45.23
50282;BME280;36176;51.506;10.272;2023-02-26T11:34:04;100030.88;;;6.61;44.76
50282;BME280;36176;51.506;10.272;2023-02-26T11:36:33;100029.97;;;6.62;45.16
50282;BME280;36176;51.506;10.272;2023-02-26T11:39:16;100031.75;;;6.99;46.68
50282;BME280;36176;51.506;10.272;2023-02-26T11:41:46;100036.81;;;7.44;42.87
50282;BME280;36176;51.506;10.272;2023-02-26T11:44:18;100032.41;;;7.79;42.30
50282;BME280;36176;51.506;10.272;2023-02-26T11:46:51;100027.09;;;7.46;41.91
50282;BME280;36176;51.506;10.272;2023-02-26T11:49:22;100030.78;;;7.39;41.88
50282;BME280;36176;51.506;10.272;2023-02-26T11:52:05;100031.47;;;7.11;41.44
50282;BME280;36176;51.506;10.272;2023-02-26T11:54:43;100028.16;;;6.66;41.89
50282;BME280;36176;51.506;10.272;2023-02-26T11:57:18;100034.13;;;5.87;39.49
50282;BME280;36176;51.506;10.272;2023-02-26T11:59:48;100031.50;;;5.37;41.97
50282;BME280;36176;51.506;10.272;2023-02-26T12:02:22;100037.69;;;5.31;44.30
50282;BME280;36176;51.506;10.272;2023-02-26T12:04:56;100029.97;;;5.72;42.64
50282;BME280;36176;51.506;10.272;2023-02-26T12:07:26;100030.09;;;6.15;41.11
50282;BME280;36176;51.506;10.272;2023-02-26T12:09:53;100025.81;;;6.52;41.30
50282;BME280;36176;51.506;10.272;2023-02-26T12:15:25;100022.00;;;7.02;40.24
50282;BME280;36176;51.506;10.272;2023-02-26T12:18:23;100024.84;;;6.95;38.96
50282;BME280;36176;51.506;10.272;2023-02-26T12:26:27;100021.00;;;6.71;41.05
50282;BME280;36176;51.506;10.272;2023-02-26T12:31:51;100020.53;;;5.62;39.94
50282;BME280;36176;51.506;10.272;2023-02-26T12:34:57;100039.72;;;5.16;42.11
50282;BME280;36176;51.506;10.272;2023-02-26T12:38:00;100039.59;;;4.66;40.46
50282;BME280;36176;51.506;10.272;2023-02-26T12:40:43;100028.69;;;4.94;43.10
50282;BME280;36176;51.506;10.272;2023-02-26T12:49:23;100023.72;;;5.79;41.07
50282;BME280;36176;51.506;10.272;2023-02-26T12:58:23;100040.88;;;6.44;40.06
50282;BME280;36176;51.506;10.272;2023-02-26T13:01:01;100038.13;;;6.50;39.84
50282;BME280;36176;51.506;10.272;2023-02-26T13:06:35;100051.16;;;6.12;39.38
50282;BME280;36176;51.506;10.272;2023-02-26T13:09:17;100045.13;;;6.09;39.83
50282;BME280;36176;51.506;10.272;2023-02-26T13:12:06;100050.00;;;6.27;38.99
50282;BME280;36176;51.506;10.272;2023-02-26T13:17:51;100052.63;;;6.69;40.07
50282;BME280;36176;51.506;10.272;2023-02-26T13:20:27;100048.19;;;6.71;39.75
50282;BME280;36176;51.506;10.272;2023-02-26T13:23:10;100049.34;;;6.58;39.38
50282;BME280;36176;51.506;10.272;2023-02-26T13:25:46;100044.16;;;6.55;39.24
50282;BME280;36176;51.506;10.272;2023-02-26T13:31:17;100061.66;;;6.15;39.77
50282;BME280;36176;51.506;10.272;2023-02-26T13:33:48;100056.03;;;5.86;38.26
50282;BME280;36176;51.506;10.272;2023-02-26T13:36:17;100061.91;;;6.02;38.91
50282;BME280;36176;51.506;10.272;2023-02-26T13:38:52;100060.53;;;5.79;38.84
50282;BME280;36176;51.506;10.272;2023-02-26T13:41:33;100065.72;;;5.32;40.04
50282;BME280;36176;51.506;10.272;2023-02-26T13:44:27;100066.19;;;5.02;40.16
50282;BME280;36176;51.506;10.272;2023-02-26T13:52:51;100064.34;;;3.66;44.52
50282;BME280;36176;51.506;10.272;2023-02-26T13:55:48;100072.09;;;3.81;45.53
50282;BME280;36176;51.506;10.272;2023-02-26T14:01:13;100069.50;;;3.75;43.23
50282;BME280;36176;51.506;10.272;2023-02-26T14:06:47;100064.72;;;3.23;44.52
50282;BME280;36176;51.506;10.272;2023-02-26T14:09:45;100064.69;;;3.28;45.06
50282;BME280;36176;51.506;10.272;2023-02-26T14:17:48;100062.00;;;3.38;45.09
50282;BME280;36176;51.506;10.272;2023-02-26T14:20:22;100068.06;;;3.42;43.48
50282;BME280;36176;51.506;10.272;2023-02-26T14:23:12;100065.41;;;3.50;44.54
50282;BME280;36176;51.506;10.272;2023-02-26T14:25:50;100063.63;;;3.53;44.47
50282;BME280;36176;51.506;10.272;2023-02-26T14:33:30;100056.97;;;3.14;45.18
50282;BME280;36176;51.506;10.272;2023-02-26T14:35:58;100055.19;;;3.16;46.06
50282;BME280;36176;51.506;10.272;2023-02-26T14:38:30;100061.31;;;3.15;46.47
50282;BME280;36176;51.506;10.272;2023-02-26T14:41:09;100058.69;;;3.13;47.07
50282;BME280;36176;51.506;10.272;2023-02-26T14:43:50;100063.13;;;3.07;45.81
50282;BME280;36176;51.506;10.272;2023-02-26T14:46:20;100060.56;;;2.94;45.08
50282;BME280;36176;51.506;10.272;2023-02-26T14:48:48;100065.03;;;2.82;45.41
50282;BME280;36176;51.506;10.272;2023-02-26T14:57:01;100073.03;;;2.51;45.02
50282;BME280;36176;51.506;10.272;2023-02-26T15:02:29;100069.63;;;2.32;45.89
50282;BME280;36176;51.506;10.272;2023-02-26T15:05:20;100069.66;;;2.27;45.55